createdAt,value
2019-01-16T00:00:10.370Z,4.60
2019-01-16T00:01:05.322Z,4.70
2019-01-16T00:02:07.938Z,4.70
2019-01-16T00:03:04.993Z,4.70
2019-01-16T00:04:05.119Z,4.70
2019-01-16T00:05:05.235Z,4.60
2019-01-16T00:06:08.004Z,4.70
2019-01-16T00:07:07.671Z,4.70
2019-01-16T00:08:05.780Z,4.70
2019-01-16T00:09:04.800Z,4.60
2019-01-16T00:10:05.082Z,4.60
2019-01-16T00:11:05.199Z,4.60
2019-01-16T00:12:07.928Z,4.70
2019-01-16T00:13:07.635Z,4.70
2019-01-16T00:14:08.042Z,4.60
2019-01-16T00:15:04.977Z,4.70
2019-01-16T00:16:05.102Z,4.70
2019-01-16T00:17:07.801Z,4.70
2019-01-16T00:18:04.802Z,4.70
2019-01-16T00:19:04.851Z,4.70
2019-01-16T00:20:04.937Z,4.70
2019-01-16T00:21:07.514Z,4.70
2019-01-16T00:22:07.906Z,4.70
2019-01-16T00:23:04.897Z,4.70
2019-01-16T00:24:05.048Z,4.60
2019-01-16T00:25:05.210Z,4.70
2019-01-16T00:26:07.825Z,4.70
2019-01-16T00:27:07.396Z,4.70
2019-01-16T00:28:07.843Z,4.70
2019-01-16T00:29:04.914Z,4.60
2019-01-16T00:30:05.038Z,4.70
2019-01-16T00:31:05.052Z,4.70
2019-01-16T00:32:08.117Z,4.70
2019-01-16T00:33:07.599Z,4.70
2019-01-16T00:34:08.211Z,4.70
2019-01-16T00:35:07.804Z,4.70
2019-01-16T00:36:04.742Z,4.60
2019-01-16T00:37:04.773Z,4.70
2019-01-16T00:38:04.875Z,4.70
2019-01-16T00:39:05.036Z,4.70
2019-01-16T00:40:07.773Z,4.70
2019-01-16T00:41:04.795Z,4.70
2019-01-16T00:42:04.874Z,4.70
2019-01-16T00:43:07.479Z,4.70
2019-01-16T00:44:08.076Z,4.70
2019-01-16T00:45:05.020Z,4.70
2019-01-16T00:46:07.645Z,4.70
2019-01-16T00:47:05.682Z,4.70
2019-01-16T00:48:04.669Z,4.70
2019-01-16T00:49:04.874Z,4.70
2019-01-16T00:50:07.612Z,4.70
2019-01-16T00:51:05.550Z,4.70
2019-01-16T00:52:07.588Z,4.70
2019-01-16T00:53:05.742Z,4.70
2019-01-16T00:54:04.894Z,4.70
2019-01-16T00:55:07.512Z,4.70
2019-01-16T00:56:05.407Z,4.70
2019-01-16T00:57:05.398Z,4.70
2019-01-16T00:58:08.015Z,4.70
2019-01-16T00:59:07.576Z,4.70
2019-01-16T01:00:05.605Z,4.70
2019-01-16T01:01:04.644Z,4.70
2019-01-16T01:02:04.701Z,4.70
2019-01-16T01:03:04.973Z,4.70
2019-01-16T01:04:07.594Z,4.70
2019-01-16T01:05:05.533Z,4.70
2019-01-16T01:06:08.117Z,4.70
2019-01-16T01:07:07.726Z,4.70
2019-01-16T01:08:04.721Z,4.70
2019-01-16T01:09:04.830Z,4.60
2019-01-16T01:10:04.934Z,4.70
2019-01-16T01:11:05.166Z,4.70
2019-01-16T01:12:05.391Z,4.70
2019-01-16T01:13:07.980Z,4.70
2019-01-16T01:14:05.116Z,4.70
2019-01-16T01:15:05.298Z,4.70
2019-01-16T01:16:07.889Z,4.70
2019-01-16T01:17:07.430Z,4.70
2019-01-16T01:18:10.666Z,4.70
2019-01-16T01:19:09.831Z,4.70
2019-01-16T01:20:04.788Z,4.70
2019-01-16T01:21:15.048Z,4.70
2019-01-16T01:22:05.332Z,4.70
2019-01-16T01:23:08.002Z,4.60
2019-01-16T01:24:05.055Z,4.70
2019-01-16T01:25:07.725Z,4.70
2019-01-16T01:26:05.831Z,4.70
2019-01-16T01:27:12.614Z,4.70
2019-01-16T01:28:10.691Z,4.70
2019-01-16T01:29:04.715Z,4.70
2019-01-16T01:30:07.733Z,4.70
2019-01-16T01:31:07.215Z,4.70
2019-01-16T01:32:07.753Z,4.70
2019-01-16T01:33:04.690Z,4.60
2019-01-16T01:34:04.734Z,4.60
2019-01-16T01:35:05.051Z,4.70
2019-01-16T01:36:05.221Z,4.70
2019-01-16T01:37:05.349Z,4.70
2019-01-16T01:38:08.140Z,4.70
2019-01-16T01:39:05.079Z,4.60
2019-01-16T01:40:07.620Z,4.60
2019-01-16T01:41:05.627Z,4.60
2019-01-16T01:42:04.635Z,4.60
2019-01-16T01:43:04.724Z,4.60
2019-01-16T01:44:07.460Z,4.60
2019-01-16T01:45:05.413Z,4.60
2019-01-16T01:46:08.129Z,4.60
2019-01-16T01:47:05.118Z,4.60
2019-01-16T01:48:07.751Z,4.60
2019-01-16T01:49:07.365Z,4.60
2019-01-16T01:50:05.251Z,4.60
2019-01-16T01:51:05.295Z,4.60
2019-01-16T01:52:07.945Z,4.70
2019-01-16T01:53:04.845Z,4.60
2019-01-16T01:54:04.984Z,4.60
2019-01-16T01:55:05.114Z,4.60
2019-01-16T01:56:07.743Z,4.70
2019-01-16T01:57:04.694Z,4.60
2019-01-16T01:58:04.747Z,4.60
2019-01-16T01:59:04.906Z,4.60
2019-01-16T02:00:04.915Z,4.60
2019-01-16T02:01:04.918Z,4.60
2019-01-16T02:02:07.684Z,4.60
2019-01-16T02:03:05.714Z,4.60
2019-01-16T02:04:04.964Z,4.60
2019-01-16T02:05:07.659Z,4.60
2019-01-16T02:06:08.083Z,4.60
2019-01-16T02:07:07.601Z,4.60
2019-01-16T02:08:05.580Z,4.60
2019-01-16T02:09:07.373Z,4.60
2019-01-16T02:10:05.336Z,4.60
2019-01-16T02:11:05.391Z,4.60
2019-01-16T02:12:05.615Z,4.70
2019-01-16T02:13:07.276Z,4.60
2019-01-16T02:14:07.776Z,4.60
2019-01-16T02:15:04.686Z,4.60
2019-01-16T02:16:04.806Z,4.60
2019-01-16T02:17:07.544Z,4.60
2019-01-16T02:18:05.618Z,4.60
2019-01-16T02:19:04.691Z,4.60
2019-01-16T02:20:07.305Z,4.60
2019-01-16T02:21:05.183Z,4.60
2019-01-16T02:22:05.297Z,4.60
2019-01-16T02:23:05.350Z,4.60
2019-01-16T02:24:07.968Z,4.60
2019-01-16T02:25:04.863Z,4.60
2019-01-16T02:26:07.397Z,4.60
2019-01-16T02:27:13.079Z,4.60
2019-01-16T02:28:05.055Z,4.60
2019-01-16T02:29:05.215Z,4.60
2019-01-16T02:30:05.583Z,4.60
2019-01-16T02:31:04.750Z,4.60
2019-01-16T02:32:09.927Z,4.60
2019-01-16T02:33:04.939Z,4.60
2019-01-16T02:34:05.012Z,4.60
2019-01-16T02:35:05.022Z,4.60
2019-01-16T02:36:07.688Z,4.60
2019-01-16T02:37:05.590Z,4.60
2019-01-16T02:38:05.664Z,4.60
2019-01-16T02:39:04.801Z,4.60
2019-01-16T02:40:07.515Z,4.60
2019-01-16T02:41:05.586Z,4.60
2019-01-16T02:42:04.868Z,4.60
2019-01-16T02:43:04.894Z,4.50
2019-01-16T02:44:05.077Z,4.60
2019-01-16T02:45:05.099Z,4.50
2019-01-16T02:46:07.831Z,4.60
2019-01-16T02:47:07.461Z,4.60
2019-01-16T02:48:05.473Z,4.60
2019-01-16T02:49:08.114Z,4.60
2019-01-16T02:50:05.091Z,4.60
2019-01-16T02:51:05.107Z,4.60
2019-01-16T02:52:07.770Z,4.60
2019-01-16T02:53:04.611Z,4.50
2019-01-16T02:54:07.167Z,4.50
2019-01-16T02:55:05.096Z,4.50
2019-01-16T02:56:05.144Z,4.50
2019-01-16T02:57:05.170Z,4.50
2019-01-16T02:58:07.745Z,4.60
2019-01-16T02:59:04.662Z,4.50
2019-01-16T03:00:05.391Z,4.60
2019-01-16T03:01:05.593Z,4.60
2019-01-16T03:02:04.660Z,4.50
2019-01-16T03:03:04.677Z,4.50
2019-01-16T03:04:05.064Z,4.60
2019-01-16T03:05:05.058Z,4.60
2019-01-16T03:06:04.719Z,4.60
2019-01-16T03:07:07.465Z,4.60
2019-01-16T03:08:05.401Z,4.60
2019-01-16T03:09:05.448Z,4.50
2019-01-16T03:10:05.537Z,4.50
2019-01-16T03:11:08.172Z,4.60
2019-01-16T03:12:05.116Z,4.60
2019-01-16T03:13:05.282Z,4.60
2019-01-16T03:14:10.420Z,4.60
2019-01-16T03:15:07.989Z,4.60
2019-01-16T03:16:04.870Z,4.60
2019-01-16T03:17:05.053Z,4.60
2019-01-16T03:18:05.183Z,4.60
2019-01-16T03:19:05.349Z,4.50
2019-01-16T03:20:05.471Z,4.60
2019-01-16T03:21:05.587Z,4.50
2019-01-16T03:22:04.673Z,4.50
2019-01-16T03:23:07.314Z,4.60
2019-01-16T03:24:07.842Z,4.50
2019-01-16T03:25:04.807Z,4.50
2019-01-16T03:26:04.880Z,4.60
2019-01-16T03:27:04.871Z,4.50
2019-01-16T03:28:07.488Z,4.60
2019-01-16T03:29:05.458Z,4.50
2019-01-16T03:30:05.339Z,4.50
2019-01-16T03:31:04.723Z,4.50
2019-01-16T03:32:08.326Z,4.50
2019-01-16T03:33:10.556Z,4.50
2019-01-16T03:34:08.057Z,4.50
2019-01-16T03:35:05.100Z,4.50
2019-01-16T03:36:05.218Z,4.60
2019-01-16T03:37:05.351Z,4.50
2019-01-16T03:38:05.026Z,4.50
2019-01-16T03:39:07.890Z,4.60
2019-01-16T03:40:07.510Z,4.50
2019-01-16T03:41:08.024Z,4.50
2019-01-16T03:42:05.060Z,4.50
2019-01-16T03:43:10.375Z,4.50
2019-01-16T03:44:07.867Z,4.50
2019-01-16T03:45:04.759Z,4.60
2019-01-16T03:46:04.870Z,4.50
2019-01-16T03:47:07.409Z,4.50
2019-01-16T03:48:07.854Z,4.50
2019-01-16T03:49:12.846Z,4.50
2019-01-16T03:50:04.841Z,4.50
2019-01-16T03:51:05.123Z,4.50
2019-01-16T03:52:05.329Z,4.50
2019-01-16T03:53:05.460Z,4.50
2019-01-16T03:54:04.699Z,4.50
2019-01-16T03:55:04.736Z,4.50
2019-01-16T03:56:07.555Z,4.50
2019-01-16T03:57:08.201Z,4.50
2019-01-16T03:58:05.196Z,4.50
2019-01-16T03:59:05.259Z,4.50
2019-01-16T04:00:05.342Z,4.50
2019-01-16T04:01:07.966Z,4.50
2019-01-16T04:02:07.459Z,4.50
2019-01-16T04:03:05.428Z,4.50
2019-01-16T04:04:05.458Z,4.50
2019-01-16T04:05:05.715Z,4.50
2019-01-16T04:06:07.336Z,4.50
2019-01-16T04:07:05.352Z,4.50
2019-01-16T04:08:10.420Z,4.40
2019-01-16T04:09:07.952Z,4.50
2019-01-16T04:10:04.919Z,4.40
2019-01-16T04:11:05.033Z,4.50
2019-01-16T04:12:12.864Z,4.40
2019-01-16T04:13:04.740Z,4.50
2019-01-16T04:14:07.475Z,4.50
2019-01-16T04:15:05.492Z,4.50
2019-01-16T04:16:08.114Z,4.50
2019-01-16T04:17:07.696Z,4.50
2019-01-16T04:18:08.186Z,4.50
2019-01-16T04:19:05.282Z,4.40
2019-01-16T04:20:05.398Z,4.50
2019-01-16T04:21:05.449Z,4.50
2019-01-16T04:22:05.696Z,4.50
2019-01-16T04:23:07.378Z,4.50
2019-01-16T04:24:05.338Z,4.50
2019-01-16T04:25:10.464Z,4.50
2019-01-16T04:26:05.418Z,4.40
2019-01-16T04:27:05.529Z,4.50
2019-01-16T04:28:08.234Z,4.40
2019-01-16T04:29:05.178Z,4.50
2019-01-16T04:30:04.883Z,4.50
2019-01-16T04:31:07.747Z,4.50
2019-01-16T04:32:07.182Z,4.50
2019-01-16T04:33:05.146Z,4.50
2019-01-16T04:34:05.297Z,4.50
2019-01-16T04:35:05.367Z,4.50
2019-01-16T04:36:05.442Z,4.50
2019-01-16T04:37:05.617Z,4.50
2019-01-16T04:38:07.253Z,4.40
2019-01-16T04:39:05.167Z,4.40
2019-01-16T04:40:05.439Z,4.50
2019-01-16T04:41:08.145Z,4.40
2019-01-16T04:42:05.094Z,4.40
2019-01-16T04:43:05.154Z,4.40
2019-01-16T04:44:05.329Z,4.40
2019-01-16T04:45:05.408Z,4.50
2019-01-16T04:46:08.014Z,4.40
2019-01-16T04:47:05.092Z,4.50
2019-01-16T04:48:05.269Z,4.40
2019-01-16T04:49:05.331Z,4.50
2019-01-16T04:50:07.914Z,4.40
2019-01-16T04:51:04.784Z,4.40
2019-01-16T04:52:04.841Z,4.50
2019-01-16T04:53:04.839Z,4.40
2019-01-16T04:54:04.991Z,4.50
2019-01-16T04:55:05.061Z,4.40
2019-01-16T04:56:07.652Z,4.40
2019-01-16T04:57:05.578Z,4.40
2019-01-16T04:58:08.124Z,4.40
2019-01-16T04:59:05.097Z,4.50
2019-01-16T05:00:05.189Z,4.40
2019-01-16T05:01:05.242Z,4.40
2019-01-16T05:02:05.372Z,4.40
2019-01-16T05:03:07.926Z,4.40
2019-01-16T05:04:04.852Z,4.40
2019-01-16T05:05:04.893Z,4.40
2019-01-16T05:06:04.938Z,4.40
2019-01-16T05:07:07.611Z,4.40
2019-01-16T05:08:05.518Z,4.40
2019-01-16T05:09:05.634Z,4.40
2019-01-16T05:10:05.728Z,4.40
2019-01-16T05:11:07.372Z,4.40
2019-01-16T05:12:07.929Z,4.40
2019-01-16T05:13:07.545Z,4.40
2019-01-16T05:14:08.012Z,4.40
2019-01-16T05:15:04.925Z,4.40
2019-01-16T05:16:05.043Z,4.40
2019-01-16T05:17:05.124Z,4.40
2019-01-16T05:18:05.286Z,4.40
2019-01-16T05:19:05.426Z,4.40
2019-01-16T05:20:08.023Z,4.40
2019-01-16T05:21:05.023Z,4.40
2019-01-16T05:22:07.780Z,4.40
2019-01-16T05:23:04.879Z,4.40
2019-01-16T05:24:05.030Z,4.40
2019-01-16T05:25:12.091Z,4.40
2019-01-16T05:26:05.166Z,4.40
2019-01-16T05:27:05.341Z,4.40
2019-01-16T05:28:05.412Z,4.40
2019-01-16T05:29:05.555Z,4.40
2019-01-16T05:30:04.937Z,4.40
2019-01-16T05:31:10.106Z,4.40
2019-01-16T05:32:05.097Z,4.40
2019-01-16T05:33:05.371Z,4.40
2019-01-16T05:34:05.505Z,4.40
2019-01-16T05:35:08.141Z,4.40
2019-01-16T05:36:05.092Z,4.40
2019-01-16T05:37:05.150Z,4.40
2019-01-16T05:38:10.347Z,4.40
2019-01-16T05:39:07.912Z,4.40
2019-01-16T05:40:04.975Z,4.40
2019-01-16T05:41:10.102Z,4.40
2019-01-16T05:42:07.540Z,4.40
2019-01-16T05:43:05.492Z,4.40
2019-01-16T05:44:05.626Z,4.40
2019-01-16T05:45:04.792Z,4.40
2019-01-16T05:46:05.301Z,4.40
2019-01-16T05:47:05.381Z,4.40
2019-01-16T05:48:10.531Z,4.40
2019-01-16T05:49:07.988Z,4.50
2019-01-16T05:50:07.443Z,4.50
2019-01-16T05:51:05.375Z,4.40
2019-01-16T05:52:10.531Z,4.40
2019-01-16T05:53:08.070Z,4.40
2019-01-16T05:54:07.453Z,4.50
2019-01-16T05:55:05.373Z,4.40
2019-01-16T05:56:05.533Z,4.40
2019-01-16T05:57:05.551Z,4.40
2019-01-16T05:58:05.654Z,4.40
2019-01-16T05:59:07.277Z,4.50
2019-01-16T06:00:05.426Z,4.40
2019-01-16T06:01:08.046Z,4.40
2019-01-16T06:02:07.495Z,4.40
2019-01-16T06:03:05.424Z,4.40
2019-01-16T06:04:05.631Z,4.40
2019-01-16T06:05:07.353Z,4.40
2019-01-16T06:06:07.808Z,4.40
2019-01-16T06:07:04.875Z,4.40
2019-01-16T06:08:07.499Z,4.40
2019-01-16T06:09:07.981Z,4.40
2019-01-16T06:10:04.889Z,4.40
2019-01-16T06:11:04.908Z,4.40
2019-01-16T06:12:04.947Z,4.40
2019-01-16T06:13:05.032Z,4.40
2019-01-16T06:14:07.718Z,4.40
2019-01-16T06:15:05.632Z,4.40
2019-01-16T06:16:07.205Z,4.40
2019-01-16T06:17:05.326Z,4.40
2019-01-16T06:18:05.495Z,4.40
2019-01-16T06:19:05.659Z,4.50
2019-01-16T06:20:04.752Z,4.40
2019-01-16T06:21:07.439Z,4.40
2019-01-16T06:22:05.417Z,4.40
2019-01-16T06:23:10.754Z,4.40
2019-01-16T06:24:07.213Z,4.40
2019-01-16T06:25:07.665Z,4.50
2019-01-16T06:26:08.147Z,4.50
2019-01-16T06:27:05.101Z,4.40
2019-01-16T06:28:07.734Z,4.50
2019-01-16T06:29:04.782Z,4.40
2019-01-16T06:30:05.213Z,4.40
2019-01-16T06:31:07.845Z,4.40
2019-01-16T06:32:04.799Z,4.40
2019-01-16T06:33:04.867Z,4.40
2019-01-16T06:34:04.892Z,4.40
2019-01-16T06:35:07.622Z,4.40
2019-01-16T06:36:05.541Z,4.40
2019-01-16T06:37:05.776Z,4.40
2019-01-16T06:38:04.818Z,4.40
2019-01-16T06:39:04.912Z,4.40
2019-01-16T06:40:05.081Z,4.40
2019-01-16T06:41:12.856Z,4.40
2019-01-16T06:42:09.959Z,4.40
2019-01-16T06:43:07.514Z,4.40
2019-01-16T06:44:08.097Z,4.40
2019-01-16T06:45:07.699Z,4.40
2019-01-16T06:46:04.793Z,4.40
2019-01-16T06:47:07.405Z,4.40
2019-01-16T06:48:05.413Z,4.40
2019-01-16T06:49:05.462Z,4.40
2019-01-16T06:50:04.863Z,4.40
2019-01-16T06:51:05.041Z,4.40
2019-01-16T06:52:05.144Z,4.40
2019-01-16T06:53:05.210Z,4.40
2019-01-16T06:54:05.324Z,4.40
2019-01-16T06:55:05.564Z,4.40
2019-01-16T06:56:07.258Z,4.40
2019-01-16T06:57:05.157Z,4.40
2019-01-16T06:58:05.148Z,4.40
2019-01-16T06:59:07.637Z,4.40
2019-01-16T07:00:08.109Z,4.40
2019-01-16T07:01:05.111Z,4.40
2019-01-16T07:02:05.096Z,4.40
2019-01-16T07:03:04.779Z,4.40
2019-01-16T07:04:04.943Z,4.40
2019-01-16T07:05:05.112Z,4.40
2019-01-16T07:06:05.201Z,4.50
2019-01-16T07:07:05.318Z,4.40
2019-01-16T07:08:07.980Z,4.40
2019-01-16T07:09:10.120Z,4.40
2019-01-16T07:10:05.165Z,4.40
2019-01-16T07:11:05.230Z,4.40
2019-01-16T07:12:07.749Z,4.40
2019-01-16T07:13:05.775Z,4.40
2019-01-16T07:14:04.968Z,4.40
2019-01-16T07:15:05.077Z,4.40
2019-01-16T07:16:10.177Z,4.40
2019-01-16T07:17:10.294Z,4.50
2019-01-16T07:18:05.375Z,4.50
2019-01-16T07:19:08.051Z,4.50
2019-01-16T07:20:09.531Z,4.40
2019-01-16T07:21:07.502Z,4.50
2019-01-16T07:22:05.500Z,4.40
2019-01-16T07:23:08.258Z,4.50
2019-01-16T07:24:10.363Z,4.50
2019-01-16T07:25:07.770Z,4.50
2019-01-16T07:26:07.259Z,4.50
2019-01-16T07:27:05.240Z,4.50
2019-01-16T07:28:07.808Z,4.50
2019-01-16T07:29:04.787Z,4.50
2019-01-16T07:30:05.524Z,4.50
2019-01-16T07:31:05.562Z,4.50
2019-01-16T07:32:05.714Z,4.50
2019-01-16T07:33:07.304Z,4.50
2019-01-16T07:34:05.195Z,4.50
2019-01-16T07:35:05.161Z,4.50
2019-01-16T07:36:07.716Z,4.50
2019-01-16T07:37:12.374Z,4.50
2019-01-16T07:38:07.991Z,4.60
2019-01-16T07:39:05.047Z,4.50
2019-01-16T07:40:05.161Z,4.50
2019-01-16T07:41:05.346Z,4.50
2019-01-16T07:42:08.021Z,4.50
2019-01-16T07:43:07.560Z,4.50
2019-01-16T07:44:05.506Z,1.30
2019-01-16T07:45:05.582Z,4.50
2019-01-16T07:46:04.791Z,4.50
2019-01-16T07:47:07.473Z,4.40
2019-01-16T07:48:05.414Z,4.50
2019-01-16T07:49:07.947Z,4.40
2019-01-16T07:50:07.487Z,4.40
2019-01-16T07:51:05.443Z,4.40
2019-01-16T07:52:05.683Z,4.40
2019-01-16T07:53:07.524Z,4.50
2019-01-16T07:54:05.677Z,4.40
2019-01-16T07:55:04.802Z,4.40
2019-01-16T07:56:04.985Z,4.40
2019-01-16T07:57:05.057Z,4.40
2019-01-16T07:58:07.653Z,4.50
2019-01-16T07:59:05.613Z,4.40
2019-01-16T08:00:04.884Z,4.40
2019-01-16T08:01:07.570Z,4.50
2019-01-16T08:02:05.515Z,4.40
2019-01-16T08:03:05.519Z,4.40
2019-01-16T08:04:08.196Z,4.40
2019-01-16T08:05:05.136Z,4.50
2019-01-16T08:06:07.721Z,4.50
2019-01-16T08:07:05.667Z,4.40
2019-01-16T08:08:04.951Z,4.40
2019-01-16T08:09:07.778Z,4.50
2019-01-16T08:10:04.801Z,4.50
2019-01-16T08:11:04.965Z,4.40
2019-01-16T08:12:05.204Z,4.50
2019-01-16T08:13:05.440Z,4.50
2019-01-16T08:14:05.597Z,4.50
2019-01-16T08:15:04.844Z,4.50
2019-01-16T08:16:07.517Z,4.50
2019-01-16T08:17:05.439Z,4.50
2019-01-16T08:18:05.521Z,4.50
2019-01-16T08:19:08.150Z,4.50
2019-01-16T08:20:05.050Z,4.50
2019-01-16T08:21:05.155Z,4.50
2019-01-16T08:22:05.228Z,4.50
2019-01-16T08:23:07.847Z,4.50
2019-01-16T08:24:04.855Z,4.50
2019-01-16T08:25:04.959Z,4.50
2019-01-16T08:26:10.171Z,4.50
2019-01-16T08:27:05.236Z,4.50
2019-01-16T08:28:07.909Z,4.50
2019-01-16T08:29:04.880Z,4.50
2019-01-16T08:30:05.443Z,4.50
2019-01-16T08:31:05.501Z,4.50
2019-01-16T08:32:08.119Z,4.50
2019-01-16T08:33:07.631Z,4.50
2019-01-16T08:34:05.539Z,4.50
2019-01-16T08:35:05.535Z,4.50
2019-01-16T08:36:08.095Z,4.50
2019-01-16T08:37:07.570Z,4.50
2019-01-16T08:38:05.461Z,4.50
2019-01-16T08:39:05.808Z,4.50
2019-01-16T08:40:05.007Z,4.50
2019-01-16T08:41:05.073Z,4.50
2019-01-16T08:42:07.717Z,4.50
2019-01-16T08:43:07.417Z,4.50
2019-01-16T08:44:13.563Z,4.50
2019-01-16T08:45:05.110Z,4.50
2019-01-16T08:46:07.827Z,4.50
2019-01-16T08:47:07.648Z,4.50
2019-01-16T08:48:05.638Z,4.50
2019-01-16T08:49:07.654Z,4.50
2019-01-16T08:50:05.562Z,4.50
2019-01-16T08:51:08.139Z,4.50
2019-01-16T08:52:05.207Z,4.50
2019-01-16T08:53:12.979Z,4.50
2019-01-16T08:54:07.522Z,4.60
2019-01-16T08:55:10.601Z,4.60
2019-01-16T08:56:07.405Z,4.50
2019-01-16T08:57:05.419Z,4.50
2019-01-16T08:58:05.531Z,4.50
2019-01-16T08:59:05.635Z,4.50
2019-01-16T09:00:08.345Z,4.60
2019-01-16T09:01:05.311Z,4.50
2019-01-16T09:02:05.384Z,4.60
2019-01-16T09:03:05.406Z,4.60
2019-01-16T09:04:04.897Z,4.60
2019-01-16T09:05:07.981Z,4.60
2019-01-16T09:06:04.956Z,4.60
2019-01-16T09:07:04.976Z,4.60
2019-01-16T09:08:07.662Z,4.60
2019-01-16T09:09:05.716Z,4.60
2019-01-16T09:10:05.212Z,4.60
2019-01-16T09:11:07.896Z,4.60
2019-01-16T09:12:07.356Z,4.60
2019-01-16T09:13:07.745Z,4.60
2019-01-16T09:14:07.353Z,4.60
2019-01-16T09:15:05.421Z,4.60
2019-01-16T09:16:07.998Z,4.60
2019-01-16T09:17:04.878Z,4.60
2019-01-16T09:18:07.428Z,4.60
2019-01-16T09:19:05.295Z,4.60
2019-01-16T09:20:05.300Z,4.60
2019-01-16T09:21:07.944Z,4.70
2019-01-16T09:22:05.126Z,4.60
2019-01-16T09:23:05.186Z,4.60
2019-01-16T09:24:07.774Z,4.70
2019-01-16T09:25:10.814Z,4.70
2019-01-16T09:26:07.487Z,4.60
2019-01-16T09:27:05.503Z,4.60
2019-01-16T09:28:05.563Z,4.70
2019-01-16T09:29:05.566Z,4.70
2019-01-16T09:30:07.509Z,4.70
2019-01-16T09:31:07.918Z,4.70
2019-01-16T09:32:04.872Z,4.70
2019-01-16T09:33:04.908Z,4.70
2019-01-16T09:34:07.483Z,4.70
2019-01-16T09:35:07.885Z,4.70
2019-01-16T09:36:04.790Z,4.70
2019-01-16T09:37:04.854Z,4.70
2019-01-16T09:38:04.974Z,4.70
2019-01-16T09:39:07.714Z,4.80
2019-01-16T09:40:07.331Z,4.80
2019-01-16T09:41:05.238Z,4.80
2019-01-16T09:42:05.386Z,4.80
2019-01-16T09:43:05.552Z,4.80
2019-01-16T09:44:05.603Z,4.80
2019-01-16T09:45:04.769Z,4.80
2019-01-16T09:46:07.393Z,4.80
2019-01-16T09:47:05.407Z,4.80
2019-01-16T09:48:05.588Z,4.80
2019-01-16T09:49:05.631Z,4.80
2019-01-16T09:50:05.120Z,4.80
2019-01-16T09:51:05.186Z,4.80
2019-01-16T09:52:05.200Z,4.80
2019-01-16T09:53:10.249Z,4.80
2019-01-16T09:54:07.655Z,4.90
2019-01-16T09:55:05.643Z,4.80
2019-01-16T09:56:04.954Z,4.90
2019-01-16T09:57:04.953Z,4.80
2019-01-16T09:58:05.206Z,4.90
2019-01-16T09:59:07.856Z,4.90
2019-01-16T10:00:04.906Z,4.90
2019-01-16T10:01:07.742Z,4.90
2019-01-16T10:02:04.861Z,4.90
2019-01-16T10:03:04.892Z,4.80
2019-01-16T10:04:07.497Z,4.90
2019-01-16T10:05:07.915Z,4.90
2019-01-16T10:06:07.471Z,4.90
2019-01-16T10:07:05.556Z,4.90
2019-01-16T10:08:08.195Z,4.90
2019-01-16T10:09:07.752Z,4.90
2019-01-16T10:10:05.783Z,4.90
2019-01-16T10:11:04.984Z,4.90
2019-01-16T10:12:05.093Z,4.90
2019-01-16T10:13:07.707Z,4.90
2019-01-16T10:14:05.597Z,4.90
2019-01-16T10:15:05.517Z,4.90
2019-01-16T10:16:05.536Z,4.90
2019-01-16T10:17:05.545Z,4.90
2019-01-16T10:18:05.663Z,4.90
2019-01-16T10:19:07.651Z,4.90
2019-01-16T10:20:05.660Z,4.90
2019-01-16T10:21:07.404Z,4.80
2019-01-16T10:22:05.311Z,4.90
2019-01-16T10:23:05.360Z,4.90
2019-01-16T10:24:05.440Z,4.90
2019-01-16T10:25:05.556Z,4.90
2019-01-16T10:26:05.609Z,4.90
2019-01-16T10:27:08.102Z,4.80
2019-01-16T10:28:05.027Z,4.90
2019-01-16T10:29:05.011Z,4.90
2019-01-16T10:30:05.681Z,4.80
2019-01-16T10:31:07.402Z,4.90
2019-01-16T10:32:05.497Z,4.90
2019-01-16T10:33:08.206Z,4.90
2019-01-16T10:34:07.593Z,4.90
2019-01-16T10:35:05.514Z,4.80
2019-01-16T10:36:05.680Z,4.90
2019-01-16T10:37:07.457Z,4.90
2019-01-16T10:38:05.451Z,4.90
2019-01-16T10:39:05.589Z,4.90
2019-01-16T10:40:05.695Z,4.90
2019-01-16T10:41:04.815Z,4.90
2019-01-16T10:42:05.069Z,4.90
2019-01-16T10:43:05.107Z,4.90
2019-01-16T10:44:07.640Z,4.90
2019-01-16T10:45:05.518Z,4.90
2019-01-16T10:46:05.720Z,4.90
2019-01-16T10:47:04.874Z,4.90
2019-01-16T10:48:12.665Z,4.90
2019-01-16T10:49:05.560Z,4.90
2019-01-16T10:50:07.862Z,4.90
2019-01-16T10:51:04.873Z,4.90
2019-01-16T10:52:07.519Z,4.90
2019-01-16T10:53:05.480Z,4.90
2019-01-16T10:54:05.603Z,4.90
2019-01-16T10:55:05.673Z,4.90
2019-01-16T10:56:07.532Z,4.90
2019-01-16T10:57:08.021Z,4.90
2019-01-16T10:58:05.132Z,4.90
2019-01-16T10:59:05.233Z,4.90
2019-01-16T11:00:05.193Z,4.90
2019-01-16T11:01:05.115Z,4.90
2019-01-16T11:02:05.142Z,4.90
2019-01-16T11:03:05.153Z,4.90
2019-01-16T11:04:07.797Z,4.90
2019-01-16T11:05:05.051Z,4.90
2019-01-16T11:06:07.775Z,4.90
2019-01-16T11:07:07.341Z,4.90
2019-01-16T11:08:07.787Z,4.90
2019-01-16T11:09:07.285Z,5.00
2019-01-16T11:10:05.119Z,4.90
2019-01-16T11:11:06.675Z,5.00
2019-01-16T11:12:05.003Z,4.90
2019-01-16T11:13:07.645Z,4.90
2019-01-16T11:14:08.032Z,4.90
2019-01-16T11:15:07.529Z,4.90
2019-01-16T11:16:05.456Z,4.90
2019-01-16T11:17:05.548Z,4.90
2019-01-16T11:18:10.710Z,4.90
2019-01-16T11:19:13.208Z,4.90
2019-01-16T11:20:07.652Z,4.90
2019-01-16T11:21:10.905Z,4.90
2019-01-16T11:22:05.427Z,4.90
2019-01-16T11:23:05.466Z,4.90
2019-01-16T11:24:05.651Z,4.90
2019-01-16T11:25:07.495Z,4.90
2019-01-16T11:26:07.853Z,4.90
2019-01-16T11:27:04.890Z,4.90
2019-01-16T11:28:07.631Z,4.90
2019-01-16T11:29:05.613Z,4.90
2019-01-16T11:30:07.680Z,4.90
2019-01-16T11:31:08.147Z,4.90
2019-01-16T11:32:05.050Z,4.90
2019-01-16T11:33:05.073Z,4.90
2019-01-16T11:34:05.300Z,4.90
2019-01-16T11:35:05.339Z,4.90
2019-01-16T11:36:10.519Z,4.90
2019-01-16T11:37:05.409Z,4.90
2019-01-16T11:38:05.407Z,4.90
2019-01-16T11:39:05.445Z,4.90
2019-01-16T11:40:10.496Z,4.90
2019-01-16T11:41:05.382Z,4.80
2019-01-16T11:42:05.474Z,4.90
2019-01-16T11:43:13.242Z,4.90
2019-01-16T11:44:07.622Z,4.90
2019-01-16T11:45:08.096Z,4.90
2019-01-16T11:46:07.747Z,4.90
2019-01-16T11:47:04.753Z,4.90
2019-01-16T11:48:04.825Z,4.90
2019-01-16T11:49:04.935Z,4.90
2019-01-16T11:50:05.315Z,4.90
2019-01-16T11:51:07.891Z,4.80
2019-01-16T11:52:05.156Z,4.90
2019-01-16T11:53:05.264Z,4.80
2019-01-16T11:54:05.302Z,4.80
2019-01-16T11:55:04.886Z,4.90
2019-01-16T11:56:04.999Z,4.80
2019-01-16T11:57:07.769Z,4.80
2019-01-16T11:58:05.555Z,4.80
2019-01-16T11:59:08.074Z,4.80
2019-01-16T12:00:07.636Z,4.90
2019-01-16T12:01:08.286Z,4.80
2019-01-16T12:02:05.307Z,4.80
2019-01-16T12:03:05.346Z,4.80
2019-01-16T12:04:05.365Z,4.80
2019-01-16T12:05:05.389Z,4.80
2019-01-16T12:06:05.460Z,4.80
2019-01-16T12:07:05.493Z,4.80
2019-01-16T12:08:13.254Z,4.80
2019-01-16T12:09:05.282Z,4.80
2019-01-16T12:10:05.404Z,4.80
2019-01-16T12:11:05.613Z,4.80
2019-01-16T12:12:04.723Z,4.80
2019-01-16T12:13:07.795Z,4.80
2019-01-16T12:14:07.400Z,4.80
2019-01-16T12:15:07.894Z,4.80
2019-01-16T12:16:05.162Z,4.80
2019-01-16T12:17:05.382Z,4.80
2019-01-16T12:18:05.552Z,4.80
2019-01-16T12:19:04.778Z,4.80
2019-01-16T12:20:05.019Z,4.80
2019-01-16T12:21:05.111Z,4.80
2019-01-16T12:22:07.919Z,4.80
2019-01-16T12:23:07.415Z,4.80
2019-01-16T12:24:05.262Z,4.80
2019-01-16T12:25:05.258Z,4.80
2019-01-16T12:26:08.155Z,4.80
2019-01-16T12:27:08.007Z,4.80
2019-01-16T12:28:04.939Z,4.80
2019-01-16T12:29:05.157Z,4.80
2019-01-16T12:30:05.417Z,4.80
2019-01-16T12:31:05.370Z,4.80
2019-01-16T12:32:08.038Z,4.80
2019-01-16T12:33:07.555Z,4.80
2019-01-16T12:34:05.490Z,4.80
2019-01-16T12:35:05.706Z,4.80
2019-01-16T12:36:04.917Z,4.80
2019-01-16T12:37:04.978Z,4.80
2019-01-16T12:38:05.195Z,4.80
2019-01-16T12:39:05.363Z,4.70
2019-01-16T12:40:06.392Z,4.80
2019-01-16T12:41:10.878Z,4.70
2019-01-16T12:42:07.524Z,4.80
2019-01-16T12:43:05.537Z,4.80
2019-01-16T12:44:05.591Z,4.80
2019-01-16T12:45:05.595Z,4.80
2019-01-16T12:46:08.188Z,4.80
2019-01-16T12:47:05.087Z,4.70
2019-01-16T12:48:07.748Z,4.80
2019-01-16T12:49:06.007Z,4.70
2019-01-16T12:50:05.201Z,4.70
2019-01-16T12:51:07.798Z,4.80
2019-01-16T12:52:05.126Z,4.80
2019-01-16T12:53:05.191Z,4.80
2019-01-16T12:54:07.809Z,4.80
2019-01-16T12:55:07.326Z,4.80
2019-01-16T12:56:07.976Z,4.80
2019-01-16T12:57:07.550Z,4.80
2019-01-16T12:58:05.530Z,4.80
2019-01-16T12:59:10.283Z,4.80
2019-01-16T13:00:07.885Z,4.80
2019-01-16T13:01:05.004Z,4.80
2019-01-16T13:02:05.244Z,4.80
2019-01-16T13:03:05.311Z,4.90
2019-01-16T13:04:05.479Z,4.80
2019-01-16T13:05:08.114Z,4.90
2019-01-16T13:06:05.216Z,4.90
2019-01-16T13:07:07.831Z,4.90
2019-01-16T13:08:07.735Z,4.90
2019-01-16T13:09:04.859Z,4.90
2019-01-16T13:10:07.579Z,4.90
2019-01-16T13:11:05.595Z,4.90
2019-01-16T13:12:07.490Z,4.90
2019-01-16T13:13:05.411Z,4.90
2019-01-16T13:14:05.483Z,5.00
2019-01-16T13:15:05.525Z,4.90
2019-01-16T13:16:08.154Z,4.90
2019-01-16T13:17:07.755Z,4.90
2019-01-16T13:18:04.809Z,4.90